sensor_id;sensor_type;location;lat;lon;timestamp;P1;durP1;ratioP1;P2;durP2;ratioP2
28459;SDS011;32528;45.712;9.192;2023-04-30T00:00:37;23.25;;;14.88;;
28459;SDS011;32528;45.712;9.192;2023-04-30T00:02:38;18.02;;;11.90;;
28459;SDS011;32528;45.712;9.192;2023-04-30T00:04:38;20.25;;;12.07;;
28459;SDS011;32528;45.712;9.192;2023-04-30T00:06:39;20.00;;;12.55;;
28459;SDS011;32528;45.712;9.192;2023-04-30T00:08:40;21.58;;;12.85;;
28459;SDS011;32528;45.712;9.192;2023-04-30T00:10:41;18.40;;;12.15;;
28459;SDS011;32528;45.712;9.192;2023-04-30T00:12:42;18.13;;;12.70;;
28459;SDS011;32528;45.712;9.192;2023-04-30T00:14:42;18.85;;;13.30;;
28459;SDS011;32528;45.712;9.192;2023-04-30T00:16:43;19.80;;;12.30;;
28459;SDS011;32528;45.712;9.192;2023-04-30T00:18:44;18.98;;;12.77;;
28459;SDS011;32528;45.712;9.192;2023-04-30T00:20:46;18.13;;;12.27;;
28459;SDS011;32528;45.712;9.192;2023-04-30T00:22:47;26.33;;;13.48;;
28459;SDS011;32528;45.712;9.192;2023-04-30T00:24:48;23.95;;;13.13;;
28459;SDS011;32528;45.712;9.192;2023-04-30T00:26:48;19.38;;;10.57;;
28459;SDS011;32528;45.712;9.192;2023-04-30T00:28:49;22.27;;;12.85;;
28459;SDS011;32528;45.712;9.192;2023-04-30T00:30:50;17.65;;;12.65;;
28459;SDS011;32528;45.712;9.192;2023-04-30T00:32:50;19.80;;;12.50;;
28459;SDS011;32528;45.712;9.192;2023-04-30T00:34:51;22.02;;;12.60;;
28459;SDS011;32528;45.712;9.192;2023-04-30T00:36:53;24.30;;;13.38;;
28459;SDS011;32528;45.712;9.192;2023-04-30T00:38:53;25.35;;;13.93;;
28459;SDS011;32528;45.712;9.192;2023-04-30T00:40:54;21.85;;;15.20;;
28459;SDS011;32528;45.712;9.192;2023-04-30T00:42:55;22.05;;;14.55;;
28459;SDS011;32528;45.712;9.192;2023-04-30T00:44:56;22.88;;;15.90;;
28459;SDS011;32528;45.712;9.192;2023-04-30T00:46:57;24.65;;;15.43;;
28459;SDS011;32528;45.712;9.192;2023-04-30T00:48:58;25.17;;;15.80;;
28459;SDS011;32528;45.712;9.192;2023-04-30T00:51:03;27.08;;;16.10;;
28459;SDS011;32528;45.712;9.192;2023-04-30T00:53:05;24.33;;;15.63;;
28459;SDS011;32528;45.712;9.192;2023-04-30T00:55:05;27.33;;;16.10;;
28459;SDS011;32528;45.712;9.192;2023-04-30T00:57:07;34.63;;;14.88;;
28459;SDS011;32528;45.712;9.192;2023-04-30T00:59:11;30.48;;;17.15;;
28459;SDS011;32528;45.712;9.192;2023-04-30T01:01:12;29.70;;;15.63;;
28459;SDS011;32528;45.712;9.192;2023-04-30T01:03:14;29.90;;;15.38;;
28459;SDS011;32528;45.712;9.192;2023-04-30T01:05:16;26.60;;;15.15;;
28459;SDS011;32528;45.712;9.192;2023-04-30T01:07:17;24.08;;;16.25;;
28459;SDS011;32528;45.712;9.192;2023-04-30T01:09:18;21.38;;;16.17;;
28459;SDS011;32528;45.712;9.192;2023-04-30T01:14:06;21.83;;;14.80;;
28459;SDS011;32528;45.712;9.192;2023-04-30T01:16:15;23.58;;;15.40;;
28459;SDS011;32528;45.712;9.192;2023-04-30T01:20:44;28.42;;;16.83;;
28459;SDS011;32528;45.712;9.192;2023-04-30T01:23:10;23.88;;;15.73;;
28459;SDS011;32528;45.712;9.192;2023-04-30T01:28:09;24.73;;;17.67;;
28459;SDS011;32528;45.712;9.192;2023-04-30T01:30:14;24.35;;;16.25;;
28459;SDS011;32528;45.712;9.192;2023-04-30T01:32:17;26.80;;;18.00;;
28459;SDS011;32528;45.712;9.192;2023-04-30T01:34:18;27.35;;;16.58;;
28459;SDS011;32528;45.712;9.192;2023-04-30T01:40:57;29.52;;;19.90;;
28459;SDS011;32528;45.712;9.192;2023-04-30T01:43:53;28.95;;;18.52;;
28459;SDS011;32528;45.712;9.192;2023-04-30T01:47:47;29.40;;;17.45;;
28459;SDS011;32528;45.712;9.192;2023-04-30T01:50:06;30.90;;;18.27;;
28459;SDS011;32528;45.712;9.192;2023-04-30T01:52:18;28.15;;;17.52;;
28459;SDS011;32528;45.712;9.192;2023-04-30T01:54:43;28.55;;;17.48;;
28459;SDS011;32528;45.712;9.192;2023-04-30T01:56:53;35.60;;;17.27;;
28459;SDS011;32528;45.712;9.192;2023-04-30T01:59:04;24.90;;;16.88;;
28459;SDS011;32528;45.712;9.192;2023-04-30T02:01:05;30.48;;;16.63;;
28459;SDS011;32528;45.712;9.192;2023-04-30T02:03:05;33.58;;;17.35;;
28459;SDS011;32528;45.712;9.192;2023-04-30T02:05:06;33.63;;;18.55;;
28459;SDS011;32528;45.712;9.192;2023-04-30T02:07:07;26.85;;;17.80;;
28459;SDS011;32528;45.712;9.192;2023-04-30T02:09:08;22.90;;;17.08;;
28459;SDS011;32528;45.712;9.192;2023-04-30T02:11:10;29.13;;;18.88;;
28459;SDS011;32528;45.712;9.192;2023-04-30T02:13:10;30.88;;;19.98;;
28459;SDS011;32528;45.712;9.192;2023-04-30T02:15:11;27.20;;;18.88;;
28459;SDS011;32528;45.712;9.192;2023-04-30T02:17:14;26.75;;;19.02;;
28459;SDS011;32528;45.712;9.192;2023-04-30T02:19:15;30.95;;;18.95;;
28459;SDS011;32528;45.712;9.192;2023-04-30T02:21:16;31.38;;;19.55;;
28459;SDS011;32528;45.712;9.192;2023-04-30T02:23:17;35.75;;;19.65;;
28459;SDS011;32528;45.712;9.192;2023-04-30T02:25:19;24.83;;;18.65;;
28459;SDS011;32528;45.712;9.192;2023-04-30T02:27:21;27.90;;;17.45;;
28459;SDS011;32528;45.712;9.192;2023-04-30T02:29:23;29.42;;;19.25;;
28459;SDS011;32528;45.712;9.192;2023-04-30T02:31:24;32.35;;;18.67;;
28459;SDS011;32528;45.712;9.192;2023-04-30T02:33:24;35.28;;;20.77;;
28459;SDS011;32528;45.712;9.192;2023-04-30T02:35:25;29.60;;;18.35;;
28459;SDS011;32528;45.712;9.192;2023-04-30T02:37:26;38.42;;;18.00;;
28459;SDS011;32528;45.712;9.192;2023-04-30T02:39:27;26.13;;;18.17;;
28459;SDS011;32528;45.712;9.192;2023-04-30T02:41:28;27.58;;;18.75;;
28459;SDS011;32528;45.712;9.192;2023-04-30T02:43:29;30.10;;;19.23;;
28459;SDS011;32528;45.712;9.192;2023-04-30T02:45:30;28.80;;;17.45;;
28459;SDS011;32528;45.712;9.192;2023-04-30T02:47:31;27.65;;;18.75;;
28459;SDS011;32528;45.712;9.192;2023-04-30T02:49:32;25.65;;;17.90;;
28459;SDS011;32528;45.712;9.192;2023-04-30T02:51:33;24.23;;;17.13;;
28459;SDS011;32528;45.712;9.192;2023-04-30T02:53:34;28.08;;;17.58;;
28459;SDS011;32528;45.712;9.192;2023-04-30T02:55:35;28.88;;;17.52;;
28459;SDS011;32528;45.712;9.192;2023-04-30T02:57:35;27.00;;;17.25;;
28459;SDS011;32528;45.712;9.192;2023-04-30T02:59:37;29.25;;;18.38;;
28459;SDS011;32528;45.712;9.192;2023-04-30T03:01:38;35.08;;;18.50;;
28459;SDS011;32528;45.712;9.192;2023-04-30T03:03:39;35.78;;;20.13;;
28459;SDS011;32528;45.712;9.192;2023-04-30T03:05:40;30.05;;;20.08;;
28459;SDS011;32528;45.712;9.192;2023-04-30T03:07:42;34.05;;;18.58;;
28459;SDS011;32528;45.712;9.192;2023-04-30T03:09:43;28.92;;;17.88;;
28459;SDS011;32528;45.712;9.192;2023-04-30T03:11:43;34.45;;;19.10;;
28459;SDS011;32528;45.712;9.192;2023-04-30T03:13:44;34.08;;;18.40;;
28459;SDS011;32528;45.712;9.192;2023-04-30T03:15:45;24.85;;;16.65;;
28459;SDS011;32528;45.712;9.192;2023-04-30T03:17:46;24.48;;;15.35;;
28459;SDS011;32528;45.712;9.192;2023-04-30T03:19:48;21.60;;;13.93;;
28459;SDS011;32528;45.712;9.192;2023-04-30T03:21:48;21.88;;;15.07;;
28459;SDS011;32528;45.712;9.192;2023-04-30T03:23:49;25.98;;;14.93;;
28459;SDS011;32528;45.712;9.192;2023-04-30T03:25:50;20.08;;;13.30;;
28459;SDS011;32528;45.712;9.192;2023-04-30T03:27:52;35.60;;;15.43;;
28459;SDS011;32528;45.712;9.192;2023-04-30T03:29:52;30.95;;;15.65;;
28459;SDS011;32528;45.712;9.192;2023-04-30T03:31:54;29.40;;;13.85;;
28459;SDS011;32528;45.712;9.192;2023-04-30T03:33:55;18.17;;;13.60;;
28459;SDS011;32528;45.712;9.192;2023-04-30T03:35:57;24.33;;;16.80;;
28459;SDS011;32528;45.712;9.192;2023-04-30T03:37:58;21.00;;;15.50;;
28459;SDS011;32528;45.712;9.192;2023-04-30T03:39:59;27.50;;;15.52;;
28459;SDS011;32528;45.712;9.192;2023-04-30T03:42:00;21.75;;;16.30;;
28459;SDS011;32528;45.712;9.192;2023-04-30T03:44:02;25.55;;;15.43;;
28459;SDS011;32528;45.712;9.192;2023-04-30T03:46:03;23.25;;;15.90;;
28459;SDS011;32528;45.712;9.192;2023-04-30T03:48:05;22.23;;;15.43;;
28459;SDS011;32528;45.712;9.192;2023-04-30T03:50:05;23.65;;;16.17;;
28459;SDS011;32528;45.712;9.192;2023-04-30T03:52:07;22.80;;;15.77;;
28459;SDS011;32528;45.712;9.192;2023-04-30T03:54:08;33.63;;;16.65;;
28459;SDS011;32528;45.712;9.192;2023-04-30T03:56:09;31.52;;;16.08;;
28459;SDS011;32528;45.712;9.192;2023-04-30T03:58:10;23.52;;;17.83;;
28459;SDS011;32528;45.712;9.192;2023-04-30T04:00:11;27.70;;;18.30;;
28459;SDS011;32528;45.712;9.192;2023-04-30T04:02:20;34.92;;;17.73;;
28459;SDS011;32528;45.712;9.192;2023-04-30T04:04:22;28.85;;;18.60;;
28459;SDS011;32528;45.712;9.192;2023-04-30T04:06:22;26.00;;;17.35;;
28459;SDS011;32528;45.712;9.192;2023-04-30T04:08:23;24.33;;;17.27;;
28459;SDS011;32528;45.712;9.192;2023-04-30T04:10:24;29.27;;;19.05;;
28459;SDS011;32528;45.712;9.192;2023-04-30T04:12:25;25.88;;;17.73;;
28459;SDS011;32528;45.712;9.192;2023-04-30T04:14:26;28.55;;;18.60;;
28459;SDS011;32528;45.712;9.192;2023-04-30T04:16:27;26.10;;;18.75;;
28459;SDS011;32528;45.712;9.192;2023-04-30T04:18:28;28.58;;;20.23;;
28459;SDS011;32528;45.712;9.192;2023-04-30T04:20:29;30.38;;;21.17;;
28459;SDS011;32528;45.712;9.192;2023-04-30T04:22:30;30.50;;;19.25;;
28459;SDS011;32528;45.712;9.192;2023-04-30T04:24:32;26.48;;;18.40;;
28459;SDS011;32528;45.712;9.192;2023-04-30T04:26:36;27.35;;;19.23;;
28459;SDS011;32528;45.712;9.192;2023-04-30T04:28:37;27.65;;;19.80;;
28459;SDS011;32528;45.712;9.192;2023-04-30T04:30:38;33.50;;;19.90;;
28459;SDS011;32528;45.712;9.192;2023-04-30T04:32:39;23.90;;;17.83;;
28459;SDS011;32528;45.712;9.192;2023-04-30T04:34:48;35.92;;;19.45;;
28459;SDS011;32528;45.712;9.192;2023-04-30T04:36:49;26.17;;;19.00;;
28459;SDS011;32528;45.712;9.192;2023-04-30T04:38:50;26.70;;;16.63;;
28459;SDS011;32528;45.712;9.192;2023-04-30T04:40:52;27.13;;;16.15;;
28459;SDS011;32528;45.712;9.192;2023-04-30T04:42:53;26.35;;;16.45;;
28459;SDS011;32528;45.712;9.192;2023-04-30T04:44:54;26.63;;;17.30;;
28459;SDS011;32528;45.712;9.192;2023-04-30T04:46:55;23.20;;;17.25;;
28459;SDS011;32528;45.712;9.192;2023-04-30T04:48:57;28.42;;;18.63;;
28459;SDS011;32528;45.712;9.192;2023-04-30T04:50:58;36.40;;;16.98;;
28459;SDS011;32528;45.712;9.192;2023-04-30T04:52:59;27.58;;;18.08;;
28459;SDS011;32528;45.712;9.192;2023-04-30T04:55:00;32.08;;;19.70;;
28459;SDS011;32528;45.712;9.192;2023-04-30T04:57:01;27.33;;;19.40;;
28459;SDS011;32528;45.712;9.192;2023-04-30T04:59:04;29.35;;;18.98;;
28459;SDS011;32528;45.712;9.192;2023-04-30T05:01:05;36.88;;;22.55;;
28459;SDS011;32528;45.712;9.192;2023-04-30T05:03:06;30.50;;;19.38;;
28459;SDS011;32528;45.712;9.192;2023-04-30T05:05:09;30.65;;;21.30;;
28459;SDS011;32528;45.712;9.192;2023-04-30T05:07:10;28.42;;;20.35;;
28459;SDS011;32528;45.712;9.192;2023-04-30T05:09:12;30.60;;;19.48;;
28459;SDS011;32528;45.712;9.192;2023-04-30T05:11:13;34.40;;;22.02;;
28459;SDS011;32528;45.712;9.192;2023-04-30T05:13:13;26.67;;;18.92;;
28459;SDS011;32528;45.712;9.192;2023-04-30T05:15:14;31.38;;;20.17;;
28459;SDS011;32528;45.712;9.192;2023-04-30T05:17:16;30.85;;;20.05;;
28459;SDS011;32528;45.712;9.192;2023-04-30T05:19:16;30.20;;;20.27;;
28459;SDS011;32528;45.712;9.192;2023-04-30T05:21:17;33.05;;;18.95;;
28459;SDS011;32528;45.712;9.192;2023-04-30T05:23:18;34.83;;;19.77;;
28459;SDS011;32528;45.712;9.192;2023-04-30T05:25:19;33.25;;;21.55;;
28459;SDS011;32528;45.712;9.192;2023-04-30T05:27:20;49.50;;;20.63;;
28459;SDS011;32528;45.712;9.192;2023-04-30T05:29:22;30.38;;;18.15;;
28459;SDS011;32528;45.712;9.192;2023-04-30T05:31:22;35.47;;;21.17;;
28459;SDS011;32528;45.712;9.192;2023-04-30T05:33:24;32.80;;;20.35;;
28459;SDS011;32528;45.712;9.192;2023-04-30T05:35:25;37.58;;;20.65;;
28459;SDS011;32528;45.712;9.192;2023-04-30T05:37:26;25.73;;;20.45;;
28459;SDS011;32528;45.712;9.192;2023-04-30T05:39:26;31.27;;;19.38;;
28459;SDS011;32528;45.712;9.192;2023-04-30T05:41:28;29.38;;;19.92;;
28459;SDS011;32528;45.712;9.192;2023-04-30T05:43:28;32.58;;;19.70;;
28459;SDS011;32528;45.712;9.192;2023-04-30T05:45:30;34.90;;;18.60;;
28459;SDS011;32528;45.712;9.192;2023-04-30T05:47:30;27.27;;;18.90;;
28459;SDS011;32528;45.712;9.192;2023-04-30T05:49:31;26.20;;;18.83;;
28459;SDS011;32528;45.712;9.192;2023-04-30T05:51:32;24.52;;;19.42;;
28459;SDS011;32528;45.712;9.192;2023-04-30T05:53:33;28.75;;;17.80;;
28459;SDS011;32528;45.712;9.192;2023-04-30T05:55:34;26.55;;;18.80;;
28459;SDS011;32528;45.712;9.192;2023-04-30T05:57:35;35.47;;;19.95;;
28459;SDS011;32528;45.712;9.192;2023-04-30T05:59:37;34.05;;;19.77;;
28459;SDS011;32528;45.712;9.192;2023-04-30T06:01:43;28.50;;;19.13;;
28459;SDS011;32528;45.712;9.192;2023-04-30T06:03:43;31.85;;;20.25;;
28459;SDS011;32528;45.712;9.192;2023-04-30T06:05:45;30.92;;;19.15;;
28459;SDS011;32528;45.712;9.192;2023-04-30T06:07:46;32.75;;;19.73;;
28459;SDS011;32528;45.712;9.192;2023-04-30T06:09:47;35.78;;;19.77;;
28459;SDS011;32528;45.712;9.192;2023-04-30T06:11:48;33.83;;;19.73;;
28459;SDS011;32528;45.712;9.192;2023-04-30T06:13:51;29.02;;;19.30;;
28459;SDS011;32528;45.712;9.192;2023-04-30T06:15:52;32.17;;;21.05;;
28459;SDS011;32528;45.712;9.192;2023-04-30T06:17:52;38.42;;;20.20;;
28459;SDS011;32528;45.712;9.192;2023-04-30T06:19:53;30.55;;;20.40;;
28459;SDS011;32528;45.712;9.192;2023-04-30T06:21:54;27.55;;;19.83;;
28459;SDS011;32528;45.712;9.192;2023-04-30T06:23:55;34.75;;;19.92;;
28459;SDS011;32528;45.712;9.192;2023-04-30T06:25:55;27.15;;;19.58;;
28459;SDS011;32528;45.712;9.192;2023-04-30T06:27:56;26.05;;;17.95;;
28459;SDS011;32528;45.712;9.192;2023-04-30T06:29:57;29.05;;;20.90;;
28459;SDS011;32528;45.712;9.192;2023-04-30T06:32:00;33.80;;;19.77;;
28459;SDS011;32528;45.712;9.192;2023-04-30T06:34:01;31.30;;;19.60;;
28459;SDS011;32528;45.712;9.192;2023-04-30T06:36:02;33.03;;;20.83;;
28459;SDS011;32528;45.712;9.192;2023-04-30T06:38:03;32.55;;;20.85;;
28459;SDS011;32528;45.712;9.192;2023-04-30T06:40:04;31.27;;;19.02;;
28459;SDS011;32528;45.712;9.192;2023-04-30T06:42:05;37.17;;;22.23;;
28459;SDS011;32528;45.712;9.192;2023-04-30T06:44:09;28.38;;;19.52;;
28459;SDS011;32528;45.712;9.192;2023-04-30T06:46:10;31.55;;;20.30;;
28459;SDS011;32528;45.712;9.192;2023-04-30T06:48:11;30.65;;;20.40;;
28459;SDS011;32528;45.712;9.192;2023-04-30T06:50:13;30.73;;;19.38;;
28459;SDS011;32528;45.712;9.192;2023-04-30T06:52:15;35.22;;;19.85;;
28459;SDS011;32528;45.712;9.192;2023-04-30T06:54:16;32.80;;;19.10;;
28459;SDS011;32528;45.712;9.192;2023-04-30T06:56:17;30.55;;;20.23;;
28459;SDS011;32528;45.712;9.192;2023-04-30T06:58:18;36.08;;;19.42;;
28459;SDS011;32528;45.712;9.192;2023-04-30T07:00:19;34.05;;;19.48;;
28459;SDS011;32528;45.712;9.192;2023-04-30T07:02:19;30.95;;;19.45;;
28459;SDS011;32528;45.712;9.192;2023-04-30T07:04:21;34.90;;;21.20;;
28459;SDS011;32528;45.712;9.192;2023-04-30T07:06:24;27.70;;;18.83;;
28459;SDS011;32528;45.712;9.192;2023-04-30T07:08:25;27.95;;;17.95;;
28459;SDS011;32528;45.712;9.192;2023-04-30T07:10:26;33.95;;;19.63;;
28459;SDS011;32528;45.712;9.192;2023-04-30T07:12:27;25.13;;;15.82;;
28459;SDS011;32528;45.712;9.192;2023-04-30T07:14:28;26.20;;;17.15;;
28459;SDS011;32528;45.712;9.192;2023-04-30T07:16:29;30.90;;;18.05;;
28459;SDS011;32528;45.712;9.192;2023-04-30T07:18:31;26.45;;;16.90;;
28459;SDS011;32528;45.712;9.192;2023-04-30T07:20:32;29.88;;;17.85;;
28459;SDS011;32528;45.712;9.192;2023-04-30T07:22:33;29.27;;;16.75;;
28459;SDS011;32528;45.712;9.192;2023-04-30T07:24:34;26.00;;;16.45;;
28459;SDS011;32528;45.712;9.192;2023-04-30T07:26:35;26.08;;;16.73;;
28459;SDS011;32528;45.712;9.192;2023-04-30T07:28:36;25.65;;;15.65;;
28459;SDS011;32528;45.712;9.192;2023-04-30T07:30:37;26.40;;;16.58;;
28459;SDS011;32528;45.712;9.192;2023-04-30T07:32:38;25.45;;;16.20;;
28459;SDS011;32528;45.712;9.192;2023-04-30T07:34:40;29.13;;;16.05;;
28459;SDS011;32528;45.712;9.192;2023-04-30T07:36:41;29.25;;;17.90;;
28459;SDS011;32528;45.712;9.192;2023-04-30T07:38:42;36.35;;;18.95;;
28459;SDS011;32528;45.712;9.192;2023-04-30T07:40:43;31.17;;;17.15;;
28459;SDS011;32528;45.712;9.192;2023-04-30T07:42:44;28.67;;;16.30;;
28459;SDS011;32528;45.712;9.192;2023-04-30T07:44:44;24.50;;;16.50;;
28459;SDS011;32528;45.712;9.192;2023-04-30T07:46:45;33.35;;;16.65;;
28459;SDS011;32528;45.712;9.192;2023-04-30T07:48:46;21.95;;;15.07;;
28459;SDS011;32528;45.712;9.192;2023-04-30T07:50:47;29.42;;;16.63;;
28459;SDS011;32528;45.712;9.192;2023-04-30T07:52:48;24.50;;;17.45;;
28459;SDS011;32528;45.712;9.192;2023-04-30T07:54:49;29.02;;;16.92;;
28459;SDS011;32528;45.712;9.192;2023-04-30T07:56:50;27.42;;;17.27;;
28459;SDS011;32528;45.712;9.192;2023-04-30T07:58:51;26.02;;;16.23;;
28459;SDS011;32528;45.712;9.192;2023-04-30T08:00:51;177.13;;;38.50;;
28459;SDS011;32528;45.712;9.192;2023-04-30T08:02:53;38.15;;;18.35;;
28459;SDS011;32528;45.712;9.192;2023-04-30T08:04:53;32.70;;;17.23;;
28459;SDS011;32528;45.712;9.192;2023-04-30T08:06:54;32.80;;;19.00;;
28459;SDS011;32528;45.712;9.192;2023-04-30T08:08:55;74.50;;;25.33;;
28459;SDS011;32528;45.712;9.192;2023-04-30T08:10:57;46.47;;;20.08;;
28459;SDS011;32528;45.712;9.192;2023-04-30T08:12:57;85.03;;;32.15;;
28459;SDS011;32528;45.712;9.192;2023-04-30T08:14:59;32.05;;;17.83;;
28459;SDS011;32528;45.712;9.192;2023-04-30T08:17:01;26.52;;;17.02;;
28459;SDS011;32528;45.712;9.192;2023-04-30T08:19:02;23.20;;;16.80;;
28459;SDS011;32528;45.712;9.192;2023-04-30T08:21:04;24.02;;;17.42;;
28459;SDS011;32528;45.712;9.192;2023-04-30T08:23:05;34.85;;;17.73;;
28459;SDS011;32528;45.712;9.192;2023-04-30T08:25:06;28.20;;;17.63;;
28459;SDS011;32528;45.712;9.192;2023-04-30T08:27:09;24.80;;;15.25;;
28459;SDS011;32528;45.712;9.192;2023-04-30T08:29:10;30.33;;;16.75;;
28459;SDS011;32528;45.712;9.192;2023-04-30T08:31:11;24.40;;;16.40;;
28459;SDS011;32528;45.712;9.192;2023-04-30T08:33:12;27.45;;;17.45;;
28459;SDS011;32528;45.712;9.192;2023-04-30T08:35:12;33.80;;;18.00;;
28459;SDS011;32528;45.712;9.192;2023-04-30T08:37:13;27.88;;;17.02;;
28459;SDS011;32528;45.712;9.192;2023-04-30T08:39:14;23.70;;;16.38;;
28459;SDS011;32528;45.712;9.192;2023-04-30T08:41:15;31.17;;;17.17;;
28459;SDS011;32528;45.712;9.192;2023-04-30T08:43:16;26.42;;;16.90;;
28459;SDS011;32528;45.712;9.192;2023-04-30T08:45:18;27.77;;;16.88;;
28459;SDS011;32528;45.712;9.192;2023-04-30T08:47:19;23.27;;;16.13;;
28459;SDS011;32528;45.712;9.192;2023-04-30T08:49:20;32.47;;;15.68;;
28459;SDS011;32528;45.712;9.192;2023-04-30T08:51:23;29.25;;;15.73;;
28459;SDS011;32528;45.712;9.192;2023-04-30T08:53:25;26.50;;;15.95;;
28459;SDS011;32528;45.712;9.192;2023-04-30T08:55:26;23.45;;;15.25;;
28459;SDS011;32528;45.712;9.192;2023-04-30T08:57:27;24.88;;;15.25;;
28459;SDS011;32528;45.712;9.192;2023-04-30T08:59:27;33.05;;;14.95;;
28459;SDS011;32528;45.712;9.192;2023-04-30T09:01:28;22.02;;;15.50;;
28459;SDS011;32528;45.712;9.192;2023-04-30T09:03:30;20.92;;;14.18;;
28459;SDS011;32528;45.712;9.192;2023-04-30T09:05:31;28.55;;;14.15;;
28459;SDS011;32528;45.712;9.192;2023-04-30T09:07:31;19.70;;;12.80;;
28459;SDS011;32528;45.712;9.192;2023-04-30T09:09:37;22.27;;;12.90;;
28459;SDS011;32528;45.712;9.192;2023-04-30T09:11:38;37.85;;;13.65;;
28459;SDS011;32528;45.712;9.192;2023-04-30T09:13:39;18.98;;;12.40;;
28459;SDS011;32528;45.712;9.192;2023-04-30T09:15:40;19.42;;;12.43;;
28459;SDS011;32528;45.712;9.192;2023-04-30T09:17:41;25.13;;;13.27;;
28459;SDS011;32528;45.712;9.192;2023-04-30T09:19:42;22.05;;;13.90;;
28459;SDS011;32528;45.712;9.192;2023-04-30T09:21:42;21.13;;;13.95;;
28459;SDS011;32528;45.712;9.192;2023-04-30T09:23:53;43.38;;;14.43;;
28459;SDS011;32528;45.712;9.192;2023-04-30T09:25:55;23.33;;;14.02;;
28459;SDS011;32528;45.712;9.192;2023-04-30T09:28:06;21.35;;;13.85;;
28459;SDS011;32528;45.712;9.192;2023-04-30T09:30:13;22.60;;;14.38;;
28459;SDS011;32528;45.712;9.192;2023-04-30T09:32:31;36.65;;;14.07;;
28459;SDS011;32528;45.712;9.192;2023-04-30T09:34:34;21.80;;;13.10;;
28459;SDS011;32528;45.712;9.192;2023-04-30T09:36:35;22.33;;;15.18;;
28459;SDS011;32528;45.712;9.192;2023-04-30T09:38:35;24.38;;;13.82;;
28459;SDS011;32528;45.712;9.192;2023-04-30T09:40:37;23.98;;;13.82;;
28459;SDS011;32528;45.712;9.192;2023-04-30T09:42:56;25.63;;;15.85;;
28459;SDS011;32528;45.712;9.192;2023-04-30T09:44:58;17.65;;;12.35;;
28459;SDS011;32528;45.712;9.192;2023-04-30T09:46:59;20.45;;;12.90;;
28459;SDS011;32528;45.712;9.192;2023-04-30T09:49:01;23.52;;;13.85;;
28459;SDS011;32528;45.712;9.192;2023-04-30T09:51:04;22.88;;;14.20;;
28459;SDS011;32528;45.712;9.192;2023-04-30T09:53:06;22.17;;;13.85;;
28459;SDS011;32528;45.712;9.192;2023-04-30T09:55:08;31.92;;;14.30;;
28459;SDS011;32528;45.712;9.192;2023-04-30T09:57:09;20.25;;;13.13;;
28459;SDS011;32528;45.712;9.192;2023-04-30T09:59:11;32.75;;;13.75;;
28459;SDS011;32528;45.712;9.192;2023-04-30T10:01:13;25.15;;;15.18;;
28459;SDS011;32528;45.712;9.192;2023-04-30T10:03:15;22.27;;;12.27;;
28459;SDS011;32528;45.712;9.192;2023-04-30T10:05:17;26.95;;;13.45;;
28459;SDS011;32528;45.712;9.192;2023-04-30T10:07:19;23.50;;;14.10;;
28459;SDS011;32528;45.712;9.192;2023-04-30T10:09:21;22.58;;;13.52;;
28459;SDS011;32528;45.712;9.192;2023-04-30T10:11:25;22.00;;;14.27;;
28459;SDS011;32528;45.712;9.192;2023-04-30T10:14:12;23.73;;;15.65;;
28459;SDS011;32528;45.712;9.192;2023-04-30T10:15:56;26.98;;;12.60;;
28459;SDS011;32528;45.712;9.192;2023-04-30T10:18:01;22.75;;;12.23;;
28459;SDS011;32528;45.712;9.192;2023-04-30T10:20:04;22.60;;;15.05;;
28459;SDS011;32528;45.712;9.192;2023-04-30T10:22:09;23.27;;;13.32;;
28459;SDS011;32528;45.712;9.192;2023-04-30T10:24:14;21.38;;;13.63;;
28459;SDS011;32528;45.712;9.192;2023-04-30T10:26:19;21.40;;;13.90;;
28459;SDS011;32528;45.712;9.192;2023-04-30T10:28:22;25.02;;;15.13;;
28459;SDS011;32528;45.712;9.192;2023-04-30T10:30:23;20.67;;;13.98;;
28459;SDS011;32528;45.712;9.192;2023-04-30T10:32:25;23.15;;;13.10;;
28459;SDS011;32528;45.712;9.192;2023-04-30T10:34:40;21.63;;;13.63;;
28459;SDS011;32528;45.712;9.192;2023-04-30T10:37:11;30.42;;;13.48;;
28459;SDS011;32528;45.712;9.192;2023-04-30T10:39:31;22.10;;;12.68;;
28459;SDS011;32528;45.712;9.192;2023-04-30T10:41:34;26.95;;;13.02;;
28459;SDS011;32528;45.712;9.192;2023-04-30T10:43:34;21.67;;;13.10;;
28459;SDS011;32528;45.712;9.192;2023-04-30T10:45:36;18.73;;;11.85;;
28459;SDS011;32528;45.712;9.192;2023-04-30T10:47:41;32.22;;;13.63;;
28459;SDS011;32528;45.712;9.192;2023-04-30T10:49:45;21.92;;;11.25;;
28459;SDS011;32528;45.712;9.192;2023-04-30T10:51:49;18.40;;;11.82;;
28459;SDS011;32528;45.712;9.192;2023-04-30T10:53:51;21.67;;;10.63;;
28459;SDS011;32528;45.712;9.192;2023-04-30T10:55:59;21.20;;;11.43;;
28459;SDS011;32528;45.712;9.192;2023-04-30T10:58:29;22.95;;;12.18;;
28459;SDS011;32528;45.712;9.192;2023-04-30T11:00:29;20.08;;;12.32;;
28459;SDS011;32528;45.712;9.192;2023-04-30T11:02:44;18.35;;;12.48;;
28459;SDS011;32528;45.712;9.192;2023-04-30T11:07:07;27.23;;;11.13;;
28459;SDS011;32528;45.712;9.192;2023-04-30T11:09:09;22.67;;;12.93;;
28459;SDS011;32528;45.712;9.192;2023-04-30T11:11:10;23.02;;;12.52;;
28459;SDS011;32528;45.712;9.192;2023-04-30T11:13:16;19.50;;;12.25;;
28459;SDS011;32528;45.712;9.192;2023-04-30T11:15:19;21.02;;;13.05;;
28459;SDS011;32528;45.712;9.192;2023-04-30T11:17:22;18.38;;;10.40;;
28459;SDS011;32528;45.712;9.192;2023-04-30T11:19:23;21.73;;;11.48;;
28459;SDS011;32528;45.712;9.192;2023-04-30T11:21:26;19.40;;;10.82;;
28459;SDS011;32528;45.712;9.192;2023-04-30T11:23:27;23.30;;;11.27;;
28459;SDS011;32528;45.712;9.192;2023-04-30T11:25:32;30.45;;;12.23;;
28459;SDS011;32528;45.712;9.192;2023-04-30T11:27:40;22.48;;;11.55;;
28459;SDS011;32528;45.712;9.192;2023-04-30T11:29:44;20.55;;;12.80;;
28459;SDS011;32528;45.712;9.192;2023-04-30T11:31:46;19.60;;;10.90;;
28459;SDS011;32528;45.712;9.192;2023-04-30T11:33:47;23.58;;;10.85;;
28459;SDS011;32528;45.712;9.192;2023-04-30T11:35:49;21.23;;;10.65;;
28459;SDS011;32528;45.712;9.192;2023-04-30T11:37:53;15.98;;;8.77;;
28459;SDS011;32528;45.712;9.192;2023-04-30T11:39:55;19.83;;;9.13;;
28459;SDS011;32528;45.712;9.192;2023-04-30T11:42:00;22.38;;;10.93;;
28459;SDS011;32528;45.712;9.192;2023-04-30T11:44:02;19.25;;;10.15;;
28459;SDS011;32528;45.712;9.192;2023-04-30T11:46:07;16.55;;;9.25;;
28459;SDS011;32528;45.712;9.192;2023-04-30T11:48:11;18.98;;;10.05;;
28459;SDS011;32528;45.712;9.192;2023-04-30T11:50:18;14.07;;;9.70;;
28459;SDS011;32528;45.712;9.192;2023-04-30T11:52:28;20.75;;;10.40;;
28459;SDS011;32528;45.712;9.192;2023-04-30T11:54:32;22.38;;;11.27;;
28459;SDS011;32528;45.712;9.192;2023-04-30T11:56:38;18.30;;;10.45;;
28459;SDS011;32528;45.712;9.192;2023-04-30T11:58:40;22.10;;;11.95;;
28459;SDS011;32528;45.712;9.192;2023-04-30T12:00:40;19.85;;;10.73;;
28459;SDS011;32528;45.712;9.192;2023-04-30T12:02:43;19.52;;;9.05;;
28459;SDS011;32528;45.712;9.192;2023-04-30T12:04:46;14.50;;;7.78;;
28459;SDS011;32528;45.712;9.192;2023-04-30T12:06:47;12.15;;;7.53;;
28459;SDS011;32528;45.712;9.192;2023-04-30T12:08:48;18.25;;;9.77;;
28459;SDS011;32528;45.712;9.192;2023-04-30T12:10:51;15.90;;;9.95;;
28459;SDS011;32528;45.712;9.192;2023-04-30T12:12:51;37.13;;;9.43;;